Terminal Aerodrome Forecast
Issued by NWS

Home | Current Version | Previous Version | Graphics & Text | Print | Product List | Glossary On
Versions: 1 2 3 4 5 6 7 8 9 10 11 12 13 14 15 16 17 18
000
FTUS43 KFGF 142320
TAFBJI
TAF
KBJI 142320Z 1500/1524 28009KT P6SM BKN250
     FM150800 30009KT P6SM OVC015
     FM151000 31012KT 4SM -SN OVC010
     FM151400 33014KT P6SM OVC015
     FM151900 32014G23KT P6SM BKN035
     FM152200 31014KT P6SM SCT200=

USA.gov is the U.S. government's official web portal to all federal, state and local government web resources and services.